Bourg, Louisiana
Current Conditions -  °F | °C
As of 6:50 AM on Tuesday 21 Oct 2014 (Local Time) from KHUM Reporting Station
Clear Clear  
Wind Chill: 55°   Ceiling: Unl
Heat Index: 55°   Visibility: 7mi
Dew Point: 55°   Wind: 7mph
Humidity: 100%   Direction: 360°N
Pressure: 30.02"   Gusts: NA
Location:  29.55°N, 90.6°W
Report Text: KHUM 211150Z 36006KT 7SM SKC 13/13 A3002 RMK ATIS K VA RY36 RC
Loading
Personal Weather Stations






























Interactive Weather Map
Tropical Storm Tracking
New forecast layout! Learn more

10-Day Weather Forecast

Advertisements
Track Severe Weather on mobile